createdAt,value
2023-02-25T00:00:55.031Z,75.90
2023-02-25T00:03:24.495Z,76.10
2023-02-25T00:05:52.549Z,76.00
2023-02-25T00:08:20.607Z,75.90
2023-02-25T00:10:57.169Z,75.90
2023-02-25T00:13:25.280Z,76.00
2023-02-25T00:15:53.402Z,75.80
2023-02-25T00:18:21.426Z,75.90
2023-02-25T00:20:50.997Z,75.90
2023-02-25T00:23:19.037Z,75.70
2023-02-25T00:25:47.076Z,75.70
2023-02-25T00:28:15.092Z,75.70
2023-02-25T00:30:43.597Z,75.80
2023-02-25T00:33:12.061Z,75.60
2023-02-25T00:35:40.835Z,75.60
2023-02-25T00:38:16.056Z,75.60
2023-02-25T00:40:44.244Z,75.60
2023-02-25T00:43:12.282Z,75.60
2023-02-25T00:45:44.861Z,75.60
2023-02-25T00:48:12.879Z,75.60
2023-02-25T00:50:40.954Z,75.50
2023-02-25T00:53:10.360Z,75.50
2023-02-25T00:55:38.415Z,75.50
2023-02-25T00:58:06.466Z,75.50
2023-02-25T01:00:46.456Z,75.50
2023-02-25T01:03:20.922Z,75.40
2023-02-25T01:05:49.878Z,75.50
2023-02-25T01:08:20.136Z,75.40
2023-02-25T01:10:48.330Z,75.50
2023-02-25T01:13:16.372Z,75.50
2023-02-25T01:15:44.766Z,75.50
2023-02-25T01:18:12.884Z,75.50
2023-02-25T01:20:41.401Z,75.40
2023-02-25T01:23:09.494Z,75.40
2023-02-25T01:25:42.052Z,75.40
2023-02-25T01:28:10.128Z,75.50
2023-02-25T01:30:38.579Z,75.40
2023-02-25T01:33:06.709Z,75.50
2023-02-25T01:35:36.598Z,75.30
2023-02-25T01:38:04.636Z,75.30
2023-02-25T01:40:32.774Z,75.30
2023-02-25T01:43:02.212Z,75.30
2023-02-25T01:45:31.884Z,75.40
2023-02-25T01:48:07.112Z,75.20
2023-02-25T01:50:38.944Z,75.30
2023-02-25T01:53:06.957Z,75.30
2023-02-25T01:55:34.973Z,75.30
2023-02-25T01:58:04.380Z,75.40
2023-02-25T02:00:32.886Z,75.20
2023-02-25T02:03:00.967Z,75.20
2023-02-25T02:05:36.658Z,75.30
2023-02-25T02:08:05.686Z,75.30
2023-02-25T02:10:33.732Z,75.30
2023-02-25T02:13:01.795Z,75.40
2023-02-25T02:15:31.264Z,75.30
2023-02-25T02:18:00.501Z,75.30
2023-02-25T02:20:30.578Z,75.30
2023-02-25T02:23:14.782Z,75.20
2023-02-25T02:26:14.194Z,75.30
2023-02-25T02:29:12.552Z,75.20
2023-02-25T02:32:02.855Z,75.30
2023-02-25T02:34:37.252Z,75.30
2023-02-25T02:37:14.319Z,75.30
2023-02-25T02:39:50.222Z,75.40
2023-02-25T02:42:21.366Z,75.30
2023-02-25T02:44:52.789Z,75.30
2023-02-25T02:47:24.332Z,75.20
2023-02-25T02:49:54.688Z,75.20
2023-02-25T02:52:24.885Z,75.30
2023-02-25T02:54:54.860Z,75.30
2023-02-25T02:57:28.525Z,75.20
2023-02-25T02:59:57.724Z,75.20
2023-02-25T03:02:28.826Z,75.10
2023-02-25T03:04:59.092Z,75.30
2023-02-25T03:07:27.157Z,75.20
2023-02-25T03:09:56.467Z,75.30
2023-02-25T03:12:24.500Z,75.20
2023-02-25T03:14:52.521Z,75.20
2023-02-25T03:17:21.705Z,75.20
2023-02-25T03:19:52.227Z,75.30
2023-02-25T03:22:22.173Z,75.20
2023-02-25T03:24:51.502Z,75.20
2023-02-25T03:27:27.849Z,75.20
2023-02-25T03:29:57.520Z,75.30
2023-02-25T03:32:25.694Z,75.20
2023-02-25T03:34:57.571Z,75.20
2023-02-25T03:37:28.278Z,75.20
2023-02-25T03:39:59.992Z,75.20
2023-02-25T03:42:29.959Z,75.20
2023-02-25T03:44:59.507Z,75.20
2023-02-25T03:47:28.674Z,75.30
2023-02-25T03:50:00.858Z,75.30
2023-02-25T03:52:29.017Z,75.20
2023-02-25T03:54:57.831Z,75.20
2023-02-25T03:57:27.523Z,75.30
2023-02-25T03:59:56.403Z,75.20
2023-02-25T04:02:24.956Z,75.30
2023-02-25T04:04:53.054Z,75.20
2023-02-25T04:07:22.524Z,75.30
2023-02-25T04:09:50.558Z,75.30
2023-02-25T04:12:18.616Z,75.30
2023-02-25T04:14:46.671Z,75.20
2023-02-25T04:17:14.759Z,75.20
2023-02-25T04:19:45.050Z,75.20
2023-02-25T04:22:13.145Z,75.30
2023-02-25T04:24:42.520Z,75.20
2023-02-25T04:27:10.572Z,75.40
2023-02-25T04:29:38.614Z,75.20
2023-02-25T04:32:09.170Z,75.20
2023-02-25T04:34:37.231Z,75.20
2023-02-25T04:37:05.727Z,75.30
2023-02-25T04:39:33.850Z,75.20
2023-02-25T04:42:03.297Z,75.30
2023-02-25T04:44:31.321Z,75.30
2023-02-25T04:46:59.367Z,75.30
2023-02-25T04:49:27.392Z,75.30
2023-02-25T04:51:55.435Z,75.30
2023-02-25T04:54:23.631Z,75.30
2023-02-25T04:56:51.734Z,75.30
2023-02-25T04:59:21.156Z,75.20
2023-02-25T05:01:49.289Z,75.20
2023-02-25T05:04:17.310Z,75.30
2023-02-25T05:06:45.337Z,75.20
2023-02-25T05:09:13.418Z,75.20
2023-02-25T05:11:41.471Z,75.20
2023-02-25T05:14:09.529Z,75.20
2023-02-25T05:16:39.141Z,75.20
2023-02-25T05:19:07.292Z,75.20
2023-02-25T05:21:35.857Z,75.20
2023-02-25T05:24:04.143Z,75.20
2023-02-25T05:26:32.222Z,75.20
2023-02-25T05:29:00.508Z,75.20
2023-02-25T05:31:28.626Z,75.30
2023-02-25T05:33:58.074Z,75.10
2023-02-25T05:36:28.302Z,75.20
2023-02-25T05:38:58.838Z,75.20
2023-02-25T05:41:27.333Z,75.10
2023-02-25T05:43:55.539Z,75.20
2023-02-25T05:46:23.869Z,75.20
2023-02-25T05:48:52.057Z,75.10
2023-02-25T05:51:22.707Z,75.10
2023-02-25T05:53:50.821Z,75.20
2023-02-25T05:56:19.795Z,75.00
2023-02-25T05:58:48.606Z,75.10
2023-02-25T06:01:18.020Z,75.20
2023-02-25T06:03:46.708Z,75.10
2023-02-25T06:06:15.177Z,75.20
2023-02-25T06:08:44.958Z,75.00
2023-02-25T06:11:14.697Z,75.00
2023-02-25T06:13:42.919Z,75.00
2023-02-25T06:16:11.031Z,75.00
2023-02-25T06:18:39.825Z,75.10
2023-02-25T06:21:08.431Z,75.00
2023-02-25T06:23:36.905Z,75.00
2023-02-25T06:26:07.819Z,74.90
2023-02-25T06:28:39.395Z,74.90
2023-02-25T06:31:09.003Z,74.90
2023-02-25T06:33:37.210Z,75.00
2023-02-25T06:36:06.028Z,75.00
2023-02-25T06:38:34.248Z,74.90
2023-02-25T06:41:05.838Z,75.00
2023-02-25T06:43:35.463Z,75.00
2023-02-25T06:46:06.394Z,75.00
2023-02-25T06:48:34.463Z,74.90
2023-02-25T06:51:02.993Z,74.90
2023-02-25T06:53:31.019Z,75.20
2023-02-25T06:55:59.819Z,74.90
2023-02-25T06:58:27.870Z,74.90
2023-02-25T07:00:57.284Z,74.90
2023-02-25T07:03:27.284Z,74.90
2023-02-25T07:05:55.330Z,74.90
2023-02-25T07:08:23.375Z,74.90
2023-02-25T07:10:51.452Z,74.80
2023-02-25T07:13:19.514Z,74.90
2023-02-25T07:15:47.573Z,74.80
2023-02-25T07:18:17.214Z,74.90
2023-02-25T07:20:45.220Z,74.90
2023-02-25T07:23:13.279Z,74.90
2023-02-25T07:25:41.312Z,74.70
2023-02-25T07:28:09.334Z,74.80
2023-02-25T07:30:37.414Z,74.90
2023-02-25T07:33:06.078Z,74.80
2023-02-25T07:35:35.813Z,74.70
2023-02-25T07:38:03.872Z,74.80
2023-02-25T07:40:31.989Z,74.80
2023-02-25T07:42:59.999Z,74.80
2023-02-25T07:45:28.101Z,74.80
2023-02-25T07:47:56.110Z,74.80
2023-02-25T07:50:24.140Z,74.80
2023-02-25T07:52:53.555Z,74.90
2023-02-25T07:55:21.656Z,74.80
2023-02-25T07:57:49.961Z,74.80
2023-02-25T08:00:18.673Z,74.90
2023-02-25T08:02:46.726Z,75.00
2023-02-25T08:05:14.806Z,74.90
2023-02-25T08:07:42.851Z,75.00
2023-02-25T08:10:12.950Z,74.90
2023-02-25T08:12:40.970Z,75.00
2023-02-25T08:15:09.574Z,74.90
2023-02-25T08:17:40.528Z,75.00
2023-02-25T08:20:10.071Z,74.90
2023-02-25T08:22:38.592Z,75.00
2023-02-25T08:25:07.235Z,75.00
2023-02-25T08:27:37.614Z,75.00
2023-02-25T08:30:08.740Z,75.00
2023-02-25T08:32:37.077Z,75.10
2023-02-25T08:35:05.448Z,74.90
2023-02-25T08:37:33.563Z,75.00
2023-02-25T08:40:01.567Z,75.10
2023-02-25T08:42:30.608Z,75.00
2023-02-25T08:45:00.009Z,75.10
2023-02-25T08:47:28.034Z,75.20
2023-02-25T08:49:56.021Z,75.10
2023-02-25T08:52:24.037Z,75.20
2023-02-25T08:54:52.116Z,75.10
2023-02-25T08:57:20.155Z,75.20
2023-02-25T08:59:48.664Z,75.10
2023-02-25T09:02:18.072Z,75.30
2023-02-25T09:04:46.153Z,75.30
2023-02-25T09:07:16.349Z,75.30
2023-02-25T09:09:44.566Z,75.40
2023-02-25T09:12:12.586Z,75.30
2023-02-25T09:14:40.586Z,75.30
2023-02-25T09:17:08.627Z,75.30
2023-02-25T09:19:39.458Z,75.30
2023-02-25T09:22:08.128Z,75.30
2023-02-25T09:24:36.288Z,75.30
2023-02-25T09:27:07.634Z,75.40
2023-02-25T09:29:35.725Z,75.30
2023-02-25T09:32:03.930Z,75.40
2023-02-25T09:34:34.286Z,75.40
2023-02-25T09:37:04.762Z,75.40
2023-02-25T09:39:34.373Z,75.40
2023-02-25T09:42:04.240Z,75.40
2023-02-25T09:44:33.850Z,75.60
2023-02-25T09:47:03.666Z,75.50
2023-02-25T09:49:35.092Z,75.40
2023-02-25T09:52:06.544Z,75.50
2023-02-25T09:54:36.897Z,75.50
2023-02-25T09:57:05.085Z,75.40
2023-02-25T09:59:33.194Z,75.50
2023-02-25T10:02:03.793Z,75.50
2023-02-25T10:04:33.430Z,75.50
2023-02-25T10:07:08.736Z,75.40
2023-02-25T10:09:42.797Z,75.50
2023-02-25T10:12:15.283Z,75.60
2023-02-25T10:15:08.611Z,75.50
2023-02-25T10:17:44.343Z,75.50
2023-02-25T10:20:25.323Z,75.60
2023-02-25T10:22:57.808Z,75.60
2023-02-25T10:25:27.400Z,75.70
2023-02-25T10:27:56.571Z,75.60
2023-02-25T10:30:31.421Z,75.60
2023-02-25T10:32:59.568Z,75.60
2023-02-25T10:35:34.529Z,75.50
2023-02-25T10:38:03.968Z,75.60
2023-02-25T10:40:32.044Z,75.50
2023-02-25T10:43:02.139Z,75.60
2023-02-25T10:45:31.163Z,75.50
2023-02-25T10:48:02.317Z,75.60
2023-02-25T10:50:44.338Z,75.40
2023-02-25T10:53:17.041Z,75.60
2023-02-25T10:55:51.866Z,75.40
2023-02-25T10:58:26.251Z,75.40
2023-02-25T11:00:59.837Z,75.50
2023-02-25T11:03:27.880Z,75.40
2023-02-25T11:06:08.409Z,75.40
2023-02-25T11:08:38.109Z,75.30
2023-02-25T11:11:07.014Z,75.50
2023-02-25T11:13:36.793Z,75.40
2023-02-25T11:16:07.229Z,75.30
2023-02-25T11:18:35.345Z,75.30
2023-02-25T11:21:06.694Z,75.40
2023-02-25T11:23:37.484Z,75.30
2023-02-25T11:26:06.753Z,75.30
2023-02-25T11:28:36.285Z,75.10
2023-02-25T11:31:10.452Z,75.10
2023-02-25T11:33:39.607Z,75.10
2023-02-25T11:36:08.693Z,75.20
2023-02-25T11:38:38.670Z,75.20
2023-02-25T11:41:16.634Z,75.10
2023-02-25T11:43:44.743Z,75.10
2023-02-25T11:46:14.113Z,75.20
2023-02-25T11:48:48.226Z,75.20
2023-02-25T11:51:21.248Z,75.00
2023-02-25T11:54:00.270Z,75.10
2023-02-25T11:56:29.672Z,74.80
2023-02-25T11:59:12.758Z,74.80
2023-02-25T12:01:53.262Z,74.90
2023-02-25T12:04:45.920Z,74.90
2023-02-25T12:07:39.386Z,74.90
2023-02-25T12:10:37.856Z,75.00
2023-02-25T12:13:46.778Z,74.80
2023-02-25T12:16:44.605Z,74.90
2023-02-25T12:19:47.327Z,74.80
2023-02-25T12:22:26.984Z,75.00
2023-02-25T12:25:03.967Z,74.80
2023-02-25T12:28:04.396Z,74.80
2023-02-25T12:30:57.139Z,74.60
2023-02-25T12:33:33.055Z,74.80
2023-02-25T12:36:13.882Z,74.60
2023-02-25T12:39:23.822Z,74.70
2023-02-25T12:42:01.633Z,74.40
2023-02-25T12:44:46.685Z,74.60
2023-02-25T12:47:31.533Z,74.50
2023-02-25T12:50:17.906Z,74.20
2023-02-25T12:53:04.684Z,74.30
2023-02-25T12:55:49.310Z,74.10
2023-02-25T12:58:26.818Z,74.10
2023-02-25T13:01:23.675Z,73.90
2023-02-25T13:04:15.577Z,73.80
2023-02-25T13:06:53.969Z,74.10
2023-02-25T13:09:32.796Z,74.10
2023-02-25T13:12:14.174Z,73.70
2023-02-25T13:14:58.152Z,73.80
2023-02-25T13:17:34.474Z,73.80
2023-02-25T13:20:35.801Z,73.30
2023-02-25T13:23:15.198Z,73.60
2023-02-25T13:25:54.050Z,73.30
2023-02-25T13:28:27.074Z,73.10
2023-02-25T13:30:58.250Z,73.20
2023-02-25T13:33:39.199Z,73.30
2023-02-25T13:36:15.444Z,72.90
2023-02-25T13:39:03.823Z,72.90
2023-02-25T13:41:41.776Z,72.80
2023-02-25T13:45:03.792Z,72.80
2023-02-25T13:47:43.361Z,72.80
2023-02-25T13:50:34.608Z,72.40
2023-02-25T13:53:14.316Z,72.50
2023-02-25T13:56:12.737Z,72.30
2023-02-25T13:59:12.701Z,72.00
2023-02-25T14:01:48.562Z,72.00
2023-02-25T14:04:44.650Z,71.90
2023-02-25T14:07:36.983Z,72.00
2023-02-25T14:10:18.403Z,72.00
2023-02-25T14:12:55.401Z,71.60
2023-02-25T14:15:29.790Z,71.60
2023-02-25T14:18:10.863Z,71.70
2023-02-25T14:20:41.911Z,71.50
2023-02-25T14:23:13.879Z,71.10
2023-02-25T14:25:51.979Z,71.40
2023-02-25T14:28:24.278Z,71.00
2023-02-25T14:30:59.486Z,71.30
2023-02-25T14:33:43.513Z,71.10
2023-02-25T14:36:23.198Z,70.70
2023-02-25T14:39:15.867Z,70.80
2023-02-25T14:41:54.022Z,70.60
2023-02-25T14:44:30.127Z,70.80
2023-02-25T14:46:59.649Z,71.30
2023-02-25T14:49:30.860Z,70.90
2023-02-25T14:52:49.667Z,71.20
2023-02-25T14:55:40.068Z,70.70
2023-02-25T14:58:27.692Z,70.20
2023-02-25T15:01:27.010Z,70.60
2023-02-25T15:04:38.026Z,70.60
2023-02-25T15:07:22.349Z,70.10
2023-02-25T15:10:08.659Z,70.30
2023-02-25T15:13:02.654Z,70.60
2023-02-25T15:15:36.292Z,70.60
2023-02-25T15:18:22.583Z,70.80
2023-02-25T15:20:51.089Z,70.70
2023-02-25T15:23:19.863Z,70.30
2023-02-25T15:25:49.920Z,70.40
2023-02-25T15:28:45.007Z,70.50
2023-02-25T15:31:30.007Z,70.40
2023-02-25T15:34:29.965Z,70.50
2023-02-25T15:37:19.984Z,70.30
2023-02-25T15:39:49.333Z,70.30
2023-02-25T15:42:17.712Z,70.40
2023-02-25T15:44:49.458Z,70.50
2023-02-25T15:47:28.695Z,69.70
2023-02-25T15:50:00.318Z,70.40
2023-02-25T15:52:52.465Z,69.90
2023-02-25T15:55:37.679Z,70.20
2023-02-25T15:58:42.529Z,70.10
2023-02-25T16:01:46.143Z,70.00
2023-02-25T16:04:50.346Z,70.00
2023-02-25T16:07:20.293Z,70.00
2023-02-25T16:09:52.262Z,70.20
2023-02-25T16:12:20.278Z,70.00
2023-02-25T16:14:48.300Z,69.50
2023-02-25T16:17:19.549Z,69.70
2023-02-25T16:19:49.243Z,69.40
2023-02-25T16:22:18.867Z,69.50
2023-02-25T16:24:49.192Z,69.80
2023-02-25T16:27:23.877Z,69.20
2023-02-25T16:29:55.666Z,69.80
2023-02-25T16:32:30.375Z,69.60
2023-02-25T16:35:00.566Z,69.50
2023-02-25T16:37:30.561Z,69.60
2023-02-25T16:39:58.805Z,69.70
2023-02-25T16:42:26.925Z,69.60
2023-02-25T16:45:00.156Z,69.50
2023-02-25T16:47:30.838Z,69.60
2023-02-25T16:50:00.514Z,69.40
2023-02-25T16:52:31.410Z,69.20
2023-02-25T16:55:00.394Z,69.50
2023-02-25T16:57:28.627Z,69.40
2023-02-25T17:00:14.254Z,69.10
2023-02-25T17:02:47.154Z,69.20
2023-02-25T17:05:29.393Z,69.10
2023-02-25T17:07:59.685Z,68.90
2023-02-25T17:10:30.005Z,68.90
2023-02-25T17:12:58.029Z,69.10
2023-02-25T17:15:27.373Z,69.00
2023-02-25T17:18:00.219Z,68.90
2023-02-25T17:20:28.951Z,68.60
2023-02-25T17:22:57.361Z,68.70
2023-02-25T17:25:27.357Z,68.60
2023-02-25T17:27:57.734Z,68.80
2023-02-25T17:30:40.662Z,68.70
2023-02-25T17:33:31.967Z,68.30
2023-02-25T17:36:00.923Z,68.60
2023-02-25T17:38:29.717Z,68.80
2023-02-25T17:41:03.762Z,68.30
2023-02-25T17:43:35.678Z,68.20
2023-02-25T17:46:17.037Z,68.60
2023-02-25T17:48:51.847Z,68.80
2023-02-25T17:51:19.929Z,68.40
2023-02-25T17:53:49.276Z,68.60
2023-02-25T17:56:22.741Z,68.30
2023-02-25T17:58:51.297Z,68.10
2023-02-25T18:01:25.140Z,68.50
2023-02-25T18:03:55.114Z,68.10
2023-02-25T18:06:42.907Z,68.30
2023-02-25T18:09:29.376Z,68.00
2023-02-25T18:11:58.106Z,68.40
2023-02-25T18:14:29.133Z,67.50
2023-02-25T18:16:57.319Z,67.80
2023-02-25T18:19:39.044Z,67.90
2023-02-25T18:22:08.735Z,67.70
2023-02-25T18:24:38.146Z,67.60
2023-02-25T18:27:09.148Z,67.40
2023-02-25T18:29:37.193Z,67.60
2023-02-25T18:32:05.341Z,67.60
2023-02-25T18:34:33.466Z,68.20
2023-02-25T18:37:03.904Z,67.40
2023-02-25T18:39:31.944Z,68.10
2023-02-25T18:41:59.973Z,67.80
2023-02-25T18:44:28.016Z,67.30
2023-02-25T18:46:56.058Z,67.60
2023-02-25T18:49:24.082Z,67.70
2023-02-25T18:51:52.117Z,68.30
2023-02-25T18:54:21.518Z,67.60
2023-02-25T18:56:49.610Z,67.40
2023-02-25T18:59:17.648Z,67.70
2023-02-25T19:01:45.846Z,67.90
2023-02-25T19:04:16.038Z,67.80
2023-02-25T19:06:44.055Z,67.70
2023-02-25T19:09:12.121Z,67.80
2023-02-25T19:11:41.616Z,67.70
2023-02-25T19:14:09.944Z,67.50
2023-02-25T19:16:38.135Z,67.60
2023-02-25T19:19:06.158Z,67.70
2023-02-25T19:21:34.176Z,67.50
2023-02-25T19:24:02.217Z,67.70
2023-02-25T19:26:30.681Z,67.60
2023-02-25T19:29:00.727Z,67.40
2023-02-25T19:31:28.791Z,67.50
2023-02-25T19:33:56.857Z,67.60
2023-02-25T19:36:25.194Z,67.90
2023-02-25T19:38:53.443Z,67.70
2023-02-25T19:41:21.446Z,67.50
2023-02-25T19:43:49.570Z,67.60
2023-02-25T19:46:18.987Z,67.20
2023-02-25T19:48:47.046Z,67.40
2023-02-25T19:51:15.547Z,67.70
2023-02-25T19:53:43.616Z,67.80
2023-02-25T19:56:12.681Z,67.50
2023-02-25T19:58:40.711Z,67.60
2023-02-25T20:01:09.352Z,67.70
2023-02-25T20:03:38.807Z,67.50
2023-02-25T20:06:07.879Z,67.30
2023-02-25T20:08:36.783Z,67.60
2023-02-25T20:11:08.184Z,67.30
2023-02-25T20:13:39.891Z,67.50
2023-02-25T20:16:09.263Z,67.40
2023-02-25T20:18:38.795Z,67.30
2023-02-25T20:21:06.977Z,66.90
2023-02-25T20:23:35.044Z,67.70
2023-02-25T20:26:06.673Z,67.50
2023-02-25T20:28:34.823Z,67.40
2023-02-25T20:31:06.448Z,67.50
2023-02-25T20:33:34.971Z,67.60
2023-02-25T20:36:05.922Z,67.80
2023-02-25T20:38:35.939Z,67.20
2023-02-25T20:41:04.180Z,67.30
2023-02-25T20:43:33.960Z,67.40
2023-02-25T20:46:02.188Z,67.50
2023-02-25T20:48:31.317Z,67.30
2023-02-25T20:50:59.949Z,67.40
2023-02-25T20:53:29.725Z,67.60
2023-02-25T20:55:57.780Z,67.30
2023-02-25T20:58:25.801Z,67.00
2023-02-25T21:00:53.885Z,67.10
2023-02-25T21:03:21.973Z,67.00
2023-02-25T21:05:50.009Z,67.60
2023-02-25T21:08:18.116Z,67.10
2023-02-25T21:10:47.558Z,67.50
2023-02-25T21:13:15.936Z,67.30
2023-02-25T21:15:43.981Z,67.60
2023-02-25T21:18:15.824Z,67.10
2023-02-25T21:20:43.860Z,67.20
2023-02-25T21:23:11.926Z,67.00
2023-02-25T21:25:39.979Z,67.50
2023-02-25T21:28:09.388Z,67.40
2023-02-25T21:30:37.581Z,67.00
2023-02-25T21:33:08.179Z,67.20
2023-02-25T21:35:36.366Z,66.90
2023-02-25T21:38:04.445Z,67.00
2023-02-25T21:40:32.719Z,66.90
2023-02-25T21:43:00.751Z,67.10
2023-02-25T21:45:30.212Z,66.50
2023-02-25T21:47:58.253Z,67.00
2023-02-25T21:50:26.367Z,67.20
2023-02-25T21:52:54.412Z,67.10
2023-02-25T21:55:22.441Z,66.90
2023-02-25T21:57:50.464Z,66.80
2023-02-25T22:00:22.089Z,66.50
2023-02-25T22:02:53.666Z,66.50
2023-02-25T22:05:21.742Z,67.30
2023-02-25T22:07:49.763Z,66.70
2023-02-25T22:10:22.290Z,66.40
2023-02-25T22:12:50.367Z,66.80
2023-02-25T22:15:18.557Z,66.50
2023-02-25T22:17:46.584Z,66.70
2023-02-25T22:20:16.328Z,67.10
2023-02-25T22:22:44.344Z,66.80
2023-02-25T22:25:12.565Z,66.60
2023-02-25T22:27:40.576Z,66.90
2023-02-25T22:30:09.912Z,66.50
2023-02-25T22:32:38.048Z,66.80
2023-02-25T22:35:07.649Z,66.50
2023-02-25T22:37:37.027Z,66.10
2023-02-25T22:40:05.495Z,66.80
2023-02-25T22:42:33.552Z,66.60
2023-02-25T22:45:01.621Z,66.10
2023-02-25T22:47:29.658Z,66.50
2023-02-25T22:49:57.791Z,66.20
2023-02-25T22:52:26.093Z,66.10
2023-02-25T22:54:55.491Z,66.80
2023-02-25T22:57:23.873Z,66.30
2023-02-25T22:59:57.988Z,66.20
2023-02-25T23:02:26.078Z,66.40
2023-02-25T23:04:54.198Z,66.50
2023-02-25T23:07:22.217Z,66.20
2023-02-25T23:09:50.217Z,66.40
2023-02-25T23:12:21.323Z,66.50
2023-02-25T23:14:49.492Z,66.20
2023-02-25T23:17:17.681Z,66.30
2023-02-25T23:19:45.709Z,66.40
2023-02-25T23:22:21.389Z,66.30
2023-02-25T23:24:49.458Z,66.50
2023-02-25T23:27:23.591Z,66.40
2023-02-25T23:29:52.012Z,66.40
2023-02-25T23:32:20.090Z,66.60
2023-02-25T23:34:48.460Z,66.60
2023-02-25T23:37:16.550Z,66.50
2023-02-25T23:39:44.566Z,66.60
2023-02-25T23:42:12.635Z,66.70
2023-02-25T23:44:42.067Z,66.70
2023-02-25T23:47:10.135Z,66.40
2023-02-25T23:49:38.250Z,66.50
2023-02-25T23:52:06.309Z,66.20
2023-02-25T23:54:34.618Z,66.20
2023-02-25T23:57:02.660Z,66.20
2023-02-25T23:59:30.706Z,66.30
